Time;durP1;ratioP1;P1;durP2;ratioP2;P2;SDS_P1;SDS_P2;PMS_P1;PMS_P2;Temp;Humidity;BMP_temperature;BMP_pressure;BME280_temperature;BME280_humidity;BME280_pressure;Samples;Min_cycle;Max_cycle;Signal;HPM_P1;HPM_P2
2022/07/08 00:00:26;;;;;;;2.20;1.10;;;13.40;1.40;;;14.26;100.00;96209.62;620037;226;42524;-76
2022/07/08 00:03:07;;;;;;;1.70;1.60;;;13.40;1.40;;;14.31;100.00;96215.63;648192;216;42238;-75
2022/07/08 00:05:49;;;;;;;1.35;1.25;;;13.40;1.40;;;14.28;100.00;96214.66;645481;216;42201;-76
2022/07/08 00:08:31;;;;;;;1.40;1.25;;;13.40;1.40;;;14.27;100.00;96210.80;647079;216;31634;-76
2022/07/08 00:11:12;;;;;;;1.30;1.02;;;13.40;1.40;;;14.23;100.00;96211.39;645965;216;42357;-75
2022/07/08 00:13:54;;;;;;;2.12;1.58;;;13.40;1.40;;;14.22;100.00;96212.68;645388;212;42177;-76
2022/07/08 00:16:43;;;;;;;2.10;1.55;;;13.40;1.40;;;14.24;100.00;96210.11;648219;216;42236;-78
2022/07/08 00:19:29;;;;;;;1.70;1.37;;;13.40;1.40;;;14.23;100.00;96210.03;648645;216;40879;-76
2022/07/08 00:22:13;;;;;;;2.90;1.90;;;13.40;1.40;;;14.21;100.00;96210.46;648106;216;31536;-77
2022/07/08 00:24:57;;;;;;;0.90;0.70;;;13.30;1.40;;;14.13;100.00;96211.61;645437;216;41973;-76
2022/07/08 00:27:38;;;;;;;1.73;1.15;;;13.10;1.40;;;13.97;100.00;96206.68;620276;225;40112;-76
2022/07/08 00:30:22;;;;;;;1.92;1.83;;;12.90;1.40;;;13.95;100.00;96207.99;647059;212;31550;-77
2022/07/08 00:35:51;;;;;;;5.70;1.73;;;12.80;1.40;;;13.81;100.00;96204.09;618095;226;31963;-76
2022/07/08 00:38:39;;;;;;;1.33;1.15;;;12.70;1.40;;;13.77;100.00;96200.13;619122;226;33424;-77
2022/07/08 00:41:26;;;;;;;1.42;1.20;;;12.70;1.40;;;13.77;100.00;96202.35;645141;212;31575;-77
2022/07/08 00:44:14;;;;;;;1.80;1.55;;;12.70;1.40;;;13.70;100.00;96199.34;619398;226;33679;-77
2022/07/08 00:46:56;;;;;;;2.15;1.70;;;12.70;1.40;;;13.72;100.00;96200.70;647765;212;31578;-76
2022/07/08 00:49:37;;;;;;;;;;;12.70;1.40;;;13.70;100.00;96203.31;622665;226;24893;-77
2022/07/08 00:52:19;;;;;;;;;;;12.70;1.40;;;13.63;100.00;96210.42;649387;215;24807;-77
2022/07/08 00:55:02;;;;;;;;;;;12.70;1.40;;;13.67;100.00;96211.27;652115;216;24734;-76
2022/07/08 00:57:45;;;;;;;;;;;12.70;1.40;;;13.71;100.00;96204.20;648762;217;24817;-77
2022/07/08 01:00:28;;;;;;;;;;;12.70;1.40;;;13.71;100.00;96201.82;653084;216;24821;-76
2022/07/08 01:03:10;;;;;;;;;;;12.70;1.40;;;13.69;100.00;96203.28;649765;214;24837;-76
2022/07/08 01:05:54;;;;;;;;;;;12.70;1.40;;;13.71;100.00;96199.52;653068;216;24724;-76
2022/07/08 01:08:35;;;;;;;;;;;12.60;1.40;;;13.75;100.00;96200.41;649226;217;24840;-76
2022/07/08 01:11:19;;;;;;;;;;;12.70;1.40;;;13.68;100.00;96198.34;653202;213;24745;-77
2022/07/08 01:14:06;;;;;;;;;;;12.70;1.40;;;13.68;100.00;96194.58;652873;216;24823;-76
2022/07/08 01:16:49;;;;;;;;;;;12.70;1.40;;;13.64;100.00;96195.16;653616;216;24721;-76
2022/07/08 01:19:30;;;;;;;;;;;12.70;1.40;;;13.67;100.00;96195.13;652545;216;24822;-77
2022/07/08 01:22:12;;;;;;;;;;;12.70;1.40;;;13.71;100.00;96197.23;649511;216;25358;-76
2022/07/08 01:24:53;;;;;;;;;;;12.70;1.40;;;13.71;100.00;96195.05;648639;216;24808;-76
2022/07/08 01:27:34;;;;;;;;;;;12.70;1.40;;;13.68;100.00;96194.53;648801;217;24829;-76
2022/07/08 01:30:16;;;;;;;;;;;12.60;1.40;;;13.64;100.00;96201.80;652795;212;25283;-75
2022/07/08 01:35:57;;;;;;;2.17;1.67;;;12.60;1.40;;;13.67;100.00;96207.25;646550;216;32116;-76
2022/07/08 01:38:44;;;;;;;4.93;2.00;;;12.60;1.40;;;13.68;100.00;96208.58;620014;222;32410;-77
2022/07/08 01:41:32;;;;;;;1.58;1.08;;;12.70;1.40;;;13.60;100.00;96215.84;645702;216;31739;-76
2022/07/08 01:44:14;;;;;;;2.00;1.60;;;12.70;1.40;;;13.66;100.00;96215.77;645535;212;31590;-74
2022/07/08 01:46:55;;;;;;;;;;;12.70;1.40;;;13.61;100.00;96214.63;653080;216;24809;-76
2022/07/08 01:49:37;;;;;;;;;;;12.70;1.40;;;13.64;100.00;96218.53;654055;212;24710;-76
2022/07/08 01:52:18;;;;;;;;;;;12.70;1.40;;;13.68;100.00;96214.97;653849;216;25176;-76
2022/07/08 01:54:59;;;;;;;;;;;12.70;1.40;;;13.71;100.00;96218.06;653171;216;24914;-77
2022/07/08 01:57:40;;;;;;;;;;;12.70;1.40;;;13.70;100.00;96216.88;652527;212;24735;-76
2022/07/08 02:00:22;;;;;;;;;;;12.70;1.40;;;13.72;100.00;96215.03;652611;216;25579;-76
2022/07/08 02:03:03;;;;;;;;;;;12.70;1.40;;;13.70;100.00;96217.58;653136;212;24827;-76
2022/07/08 02:05:45;;;;;;;;;;;12.70;1.40;;;13.65;100.00;96222.16;653725;216;25208;-76
2022/07/08 02:08:26;;;;;;;;;;;12.70;1.40;;;13.64;100.00;96223.00;652667;216;24953;-75
2022/07/08 02:13:54;;;;;;;;;;;12.70;1.40;;;13.75;100.00;96219.70;652449;216;24756;-76
2022/07/08 02:16:35;;;;;;;;;;;12.70;1.40;;;13.73;100.00;96224.17;652418;216;24758;-76
2022/07/08 02:19:16;;;;;;;;;;;12.80;1.40;;;13.73;100.00;96223.84;652811;216;25285;-76
2022/07/08 02:22:01;;;;;;;;;;;12.80;1.40;;;13.75;100.00;96225.77;652667;212;24824;-76
2022/07/08 02:24:42;;;;;;;;;;;12.80;1.40;;;13.83;100.00;96226.93;653880;216;24803;-76
2022/07/08 02:27:23;;;;;;;;;;;12.80;1.40;;;13.83;100.00;96226.54;652401;216;24854;-75
2022/07/08 02:30:05;;;;;;;;;;;12.80;1.40;;;13.81;100.00;96232.03;653318;216;25089;-76
2022/07/08 02:32:47;;;;;;;;;;;12.80;1.40;;;13.78;100.00;96237.89;654166;216;24819;-76
2022/07/08 02:35:51;;;;;;;;;;;12.80;1.40;;;13.80;100.00;96244.92;653108;216;24821;-76
2022/07/08 02:38:32;;;;;;;;;;;12.80;1.40;;;13.79;100.00;96250.66;653612;212;24832;-76
2022/07/08 02:41:13;;;;;;;;;;;12.80;1.40;;;13.74;100.00;96255.55;653568;216;24901;-76
2022/07/08 02:43:55;;;;;;;;;;;12.80;1.40;;;13.73;100.00;96261.73;652887;212;25447;-76
2022/07/08 02:46:36;;;;;;;;;;;12.70;1.40;;;13.68;100.00;96264.12;648466;216;24824;-77
2022/07/08 02:49:17;;;;;;;;;;;12.70;1.40;;;13.47;100.00;96269.41;654097;216;24918;-76
2022/07/08 02:51:59;;;;;;;;;;;12.50;1.40;;;13.34;100.00;96276.35;653440;216;25148;-77
2022/07/08 02:54:43;;;;;;;;;;;12.40;1.40;;;13.30;100.00;96280.78;648307;217;24779;-76
2022/07/08 02:57:30;;;;;;;;;;;12.40;1.40;;;13.29;100.00;96283.20;653046;216;24916;-77
2022/07/08 03:00:18;;;;;;;;;;;12.30;1.40;;;13.31;100.00;96291.22;652623;216;25202;-75
2022/07/08 03:03:02;;;;;;;;;;;12.30;1.40;;;13.32;100.00;96291.91;653857;216;25195;-76
2022/07/08 03:05:43;;;;;;;;;;;12.30;1.40;;;13.17;100.00;96293.70;652293;216;24733;-76
2022/07/08 03:08:25;;;;;;;;;;;12.20;1.40;;;13.22;100.00;96294.88;653098;212;25343;-76
2022/07/08 03:11:06;;;;;;;;;;;12.20;1.40;;;13.01;100.00;96297.42;653192;216;24833;-76
2022/07/08 03:13:48;;;;;;;;;;;12.00;1.40;;;12.85;100.00;96309.77;654205;212;25824;-76
2022/07/08 03:16:29;;;;;;;;;;;11.90;1.40;;;12.67;100.00;96312.80;652284;214;24759;-76
2022/07/08 03:19:12;;;;;;;;;;;11.80;1.40;;;12.46;100.00;96316.42;653452;212;24888;-76
2022/07/08 03:21:51;;;;;;;;;;;11.60;1.40;;;12.35;100.00;96323.84;654047;212;25116;-75
2022/07/08 03:24:33;;;;;;;;;;;11.50;1.40;;;12.26;100.00;96330.64;653604;216;24725;-75
2022/07/08 03:27:14;;;;;;;;;;;11.50;1.40;;;12.28;100.00;96335.09;652301;212;24840;-75
2022/07/08 03:29:58;;;;;;;;;;;11.50;1.40;;;12.24;100.00;96338.81;654581;216;24800;-75
2022/07/08 03:32:40;;;;;;;;;;;11.40;1.40;;;12.20;100.00;96350.84;652911;214;24827;-75
2022/07/08 03:35:50;;;;;;;;;;;11.40;1.40;;;12.13;100.00;96352.84;653191;213;26537;-75
2022/07/08 03:38:32;;;;;;;;;;;11.30;1.40;;;12.14;100.00;96352.50;654886;216;24726;-76
2022/07/08 03:44:00;;;;;;;;;;;11.20;1.40;;;11.91;100.00;96370.42;653031;216;24816;-75
2022/07/08 03:46:41;;;;;;;;;;;11.10;1.40;;;11.90;100.00;96372.34;651126;216;24816;-76
2022/07/08 03:49:26;;;;;;;;;;;11.10;1.40;;;11.99;100.00;96379.67;654025;216;24731;-76
2022/07/08 03:52:07;;;;;;;;;;;11.10;1.40;;;12.01;100.00;96383.08;651978;216;25065;-76
2022/07/08 03:54:48;;;;;;;;;;;11.10;1.40;;;11.98;100.00;96388.28;653414;212;25249;-76
2022/07/08 03:57:30;;;;;;;;;;;11.10;1.40;;;12.00;100.00;96395.00;653249;216;24824;-75
2022/07/08 04:00:13;;;;;;;;;;;11.10;1.40;;;11.93;100.00;96403.98;654229;216;24811;-77
2022/07/08 04:02:54;;;;;;;;;;;11.00;1.40;;;11.89;100.00;96402.97;653970;216;24719;-78
2022/07/08 04:05:42;;;;;;;;;;;11.10;1.40;;;11.91;100.00;96412.16;652836;216;24857;-76
2022/07/08 04:08:23;;;;;;;;;;;11.10;1.40;;;11.90;100.00;96411.63;654140;216;25385;-76
2022/07/08 04:11:11;;;;;;;;;;;11.10;1.40;;;11.93;100.00;96416.60;654855;216;24800;-78
2022/07/08 04:13:54;;;;;;;;;;;11.10;1.40;;;11.98;100.00;96424.97;649301;217;24820;-76
2022/07/08 04:16:35;;;;;;;;;;;11.10;1.40;;;11.98;100.00;96424.10;648138;216;26135;-76
2022/07/08 04:19:16;;;;;;;;;;;11.10;1.40;;;12.02;100.00;96427.53;653449;216;24815;-76
2022/07/08 04:22:04;;;;;;;;;;;11.10;1.40;;;12.21;100.00;96433.47;653979;212;24903;-77
2022/07/08 04:24:51;;;;;;;;;;;11.20;1.40;;;12.37;100.00;96431.94;653749;212;24818;-76
2022/07/08 04:27:32;;;;;;;;;;;11.20;1.40;;;12.47;100.00;96431.41;653636;212;24924;-76
2022/07/08 04:30:14;;;;;;;;;;;11.30;1.40;;;12.61;100.00;96429.86;649465;215;25561;-76
2022/07/08 04:32:55;;;;;;;;;;;11.40;1.40;;;12.58;100.00;96433.00;652820;216;24827;-76
2022/07/08 04:35:51;;;;;;;1.00;0.60;;;11.30;1.40;;;12.65;100.00;96436.09;646762;216;32766;-76
2022/07/08 04:38:32;;;;;;;1.97;0.60;;;11.40;1.40;;;12.69;100.00;96437.34;646670;216;31544;-76
2022/07/08 04:41:14;;;;;;;1.13;0.53;;;11.50;1.40;;;12.80;100.00;96441.86;646569;216;31496;-76
2022/07/08 04:44:04;;;;;;;6.30;1.10;;;11.60;1.40;;;12.82;100.00;96442.88;647375;216;42135;-78
2022/07/08 04:46:50;;;;;;;0.63;0.50;;;11.60;1.40;;;12.98;100.00;96440.69;646233;216;42250;-75
2022/07/08 04:49:32;;;;;;;1.10;0.77;;;11.70;1.40;;;13.02;100.00;96442.41;645188;216;32018;-76
2022/07/08 04:52:20;;;;;;;2.60;0.90;;;11.70;1.40;;;13.14;100.00;96445.37;619272;226;31852;-78
2022/07/08 04:55:08;;;;;;;0.90;0.73;;;11.90;1.40;;;13.27;100.00;96446.92;647146;216;31496;-76
2022/07/08 04:57:50;;;;;;;4.40;0.80;;;12.00;1.40;;;13.49;100.00;96450.55;646667;212;31509;-75
2022/07/08 05:00:31;;;;;;;1.90;1.00;;;12.10;1.40;;;13.38;100.00;96454.08;646221;216;31531;-75
2022/07/08 05:03:13;;;;;;;0.60;0.47;;;12.10;1.40;;;13.44;100.00;96457.67;641740;215;42238;-76
2022/07/08 05:06:01;;;;;;;0.85;0.80;;;12.10;1.40;;;13.40;100.00;96459.75;641774;216;42270;-77
2022/07/08 05:08:44;;;;;;;1.80;0.50;;;12.10;1.40;;;13.51;100.00;96462.34;645654;212;31492;-75
2022/07/08 05:14:00;;;;;;;0.50;0.50;;;12.10;1.40;;;13.74;100.00;96468.41;646555;216;31474;-75
2022/07/08 05:16:42;;;;;;;1.30;0.60;;;12.20;1.40;;;13.52;100.00;96481.23;647093;216;33246;-75
2022/07/08 05:19:27;;;;;;;0.65;0.50;;;12.10;1.40;;;13.54;100.00;96480.44;617720;222;32812;-75
2022/07/08 05:22:09;;;;;;;3.67;0.75;;;12.10;1.40;;;13.42;100.00;96474.64;646851;216;32454;-75
2022/07/08 05:24:50;;;;;;;1.80;0.70;;;11.80;1.40;;;13.32;100.00;96474.98;647786;216;31544;-75
2022/07/08 05:27:35;;;;;;;0.50;0.40;;;11.60;1.40;;;12.83;100.00;96470.26;646566;216;31733;-75
2022/07/08 05:30:17;;;;;;;2.42;1.10;;;11.40;1.40;;;12.60;100.00;96471.12;646611;216;31468;-76
2022/07/08 05:33:02;;;;;;;1.80;0.90;;;11.20;1.40;;;12.51;100.00;96471.23;647744;216;31546;-75
2022/07/08 05:35:51;;;;;;;0.60;0.40;;;11.20;1.40;;;12.46;100.00;96481.03;645596;216;31513;-76
2022/07/08 05:38:38;;;;;;;1.60;0.65;;;11.20;1.40;;;12.39;100.00;96481.63;646702;212;42139;-79
2022/07/08 05:41:26;;;;;;;1.15;0.88;;;11.20;1.40;;;12.49;100.00;96486.82;646523;216;32619;-74
2022/07/08 05:44:08;;;;;;;0.68;0.30;;;11.40;1.40;;;12.63;100.00;96488.66;647474;216;31534;-74
2022/07/08 05:46:50;;;;;;;2.40;0.80;;;11.50;1.40;;;12.64;100.00;96495.00;646125;216;32593;-75
2022/07/08 05:49:33;;;;;;;0.80;0.55;;;11.60;1.40;;;12.67;100.00;96496.67;620319;226;32241;-78
2022/07/08 05:52:24;;;;;;;2.97;0.60;;;11.70;1.40;;;12.80;100.00;96500.37;643376;216;32088;-74
2022/07/08 05:55:12;;;;;;;0.50;0.40;;;11.70;1.40;;;12.83;100.00;96504.98;645843;216;31704;-72
2022/07/08 05:57:56;;;;;;;1.42;0.40;;;11.90;1.40;;;12.92;100.00;96504.42;646813;216;32934;-78
2022/07/08 06:00:44;;;;;;;3.30;0.98;;;12.00;1.40;;;12.90;100.00;96505.77;646661;216;31527;-75
2022/07/08 06:03:26;;;;;;;0.90;0.50;;;12.00;1.40;;;13.00;100.00;96506.11;619932;226;32369;-75
2022/07/08 06:06:15;;;;;;;1.20;0.90;;;12.00;1.40;;;13.08;100.00;96509.56;648165;216;31615;-75
2022/07/08 06:08:55;;;;;;;1.10;0.70;;;12.10;1.40;;;13.16;100.00;96506.94;646561;216;36327;-76
2022/07/08 06:11:43;;;;;;;0.90;0.50;;;12.20;1.40;;;13.28;100.00;96509.10;647136;216;31490;-74
2022/07/08 06:14:30;;;;;;;4.80;1.10;;;12.20;1.40;;;13.26;100.00;96512.52;647319;212;31482;-75
2022/07/08 06:17:21;;;;;;;1.05;0.50;;;12.30;1.40;;;13.34;100.00;96515.59;646973;216;34283;-74
2022/07/08 06:20:04;;;;;;;1.02;0.80;;;12.60;1.40;;;13.38;100.00;96524.75;647685;216;31788;-75
2022/07/08 06:22:45;;;;;;;0.80;0.50;;;12.50;1.40;;;13.39;100.00;96524.82;645620;216;35160;-75
2022/07/08 06:25:33;;;;;;;1.08;0.88;;;12.60;1.40;;;13.62;100.00;96519.41;647113;216;32462;-75
2022/07/08 06:28:15;;;;;;;2.70;0.70;;;12.80;1.40;;;13.73;100.00;96516.77;645913;216;43012;-75
2022/07/08 06:30:57;;;;;;;0.90;0.50;;;12.80;1.40;;;13.84;100.00;96520.59;647370;212;42407;-75
2022/07/08 06:35:53;;;;;;;1.27;0.90;;;13.10;1.40;;;14.13;100.00;96521.86;646504;216;31545;-75
2022/07/08 06:38:41;;;;;;;2.15;0.88;;;13.00;1.40;;;14.18;100.00;96524.47;646729;216;42178;-77
2022/07/08 06:41:22;;;;;;;1.35;0.80;;;13.00;1.40;;;14.16;100.00;96527.34;648068;212;42121;-79
2022/07/08 06:44:06;;;;;;;2.30;0.60;;;13.10;1.40;;;14.35;100.00;96533.87;646785;216;42249;-76
2022/07/08 06:46:48;;;;;;;5.50;0.95;;;13.30;1.40;;;14.74;100.00;96538.05;646743;212;31835;-74
2022/07/08 06:49:30;;;;;;;3.45;0.70;;;13.80;1.40;;;14.88;100.00;96544.84;645889;216;31510;-75
2022/07/08 06:52:12;;;;;;;1.20;0.70;;;13.90;1.40;;;15.51;100.00;96537.83;645553;216;31491;-75
2022/07/08 06:54:54;;;;;;;1.50;0.95;;;14.20;1.40;;;15.67;100.00;96544.73;645933;216;31481;-75
2022/07/08 06:57:35;;;;;;;0.98;0.50;;;14.40;1.40;;;16.06;100.00;96540.20;646171;212;31530;-75
2022/07/08 07:00:17;;;;;;;1.40;0.80;;;14.50;1.40;;;16.28;100.00;96538.73;647079;216;31454;-75
2022/07/08 07:02:59;;;;;;;1.27;0.70;;;14.80;1.40;;;16.60;100.00;96543.50;647635;216;31472;-75
2022/07/08 07:05:40;;;;;;;2.20;0.68;;;15.00;1.40;;;17.05;100.00;96539.59;647986;216;31497;-75
2022/07/08 07:08:22;;;;;;;1.00;0.70;;;15.10;1.40;;;17.20;100.00;96537.91;645202;216;32116;-75
2022/07/08 07:11:04;;;;;;;2.92;1.10;;;15.10;1.40;;;16.76;100.00;96532.84;646726;216;32193;-74
2022/07/08 07:13:47;;;;;;;1.00;0.60;;;14.80;1.40;;;16.03;100.00;96536.66;619378;225;31821;-75
2022/07/08 07:16:27;;;;;;;0.80;0.70;;;14.60;1.40;;;15.73;100.00;96543.09;620281;222;31814;-75
2022/07/08 07:19:09;;;;;;;3.45;0.90;;;14.30;1.40;;;15.92;100.00;96540.33;646923;216;31493;-76
2022/07/08 07:21:50;;;;;;;1.35;0.50;;;14.50;1.40;;;15.86;100.00;96543.15;647353;216;31484;-75
2022/07/08 07:24:35;;;;;;;0.85;0.50;;;14.70;1.40;;;15.93;100.00;96539.95;618027;226;32100;-75
2022/07/08 07:27:17;;;;;;;2.57;0.90;;;14.80;1.40;;;16.47;100.00;96537.30;646386;216;31494;-74
2022/07/08 07:29:59;;;;;;;3.42;1.00;;;15.00;1.40;;;16.82;100.00;96544.36;646592;216;31528;-75
2022/07/08 07:32:41;;;;;;;2.20;0.63;;;15.20;1.40;;;17.10;100.00;96542.91;647712;216;42154;-75
2022/07/08 07:35:51;;;;;;;2.37;0.57;;;15.40;1.40;;;17.41;100.00;96540.25;647333;216;42437;-75
2022/07/08 07:38:34;;;;;;;3.10;0.52;;;15.50;1.40;;;17.03;100.00;96547.13;618639;226;32064;-75
2022/07/08 07:41:16;;;;;;;2.30;0.90;;;15.50;1.40;;;16.53;100.00;96550.28;618523;226;31846;-76
2022/07/08 07:43:59;;;;;;;1.20;0.50;;;15.30;1.40;;;16.88;100.00;96549.54;646280;216;32016;-74
2022/07/08 07:46:41;;;;;;;2.53;0.80;;;15.40;1.40;;;17.08;100.00;96553.17;646729;214;31538;-75
2022/07/08 07:49:22;;;;;;;2.97;0.88;;;15.40;1.40;;;17.21;100.00;96556.76;646890;212;31868;-76
2022/07/08 07:52:05;;;;;;;3.30;0.90;;;15.40;1.40;;;16.99;100.00;96560.11;646627;212;31497;-75
2022/07/08 07:54:52;;;;;;;3.10;0.90;;;15.40;1.40;;;16.66;100.00;96557.67;647367;212;32024;-77
2022/07/08 07:57:40;;;;;;;1.90;0.90;;;15.30;1.40;;;17.06;100.00;96558.97;645951;212;31562;-75
2022/07/08 08:00:22;;;;;;;2.90;1.23;;;15.50;1.40;;;17.46;100.00;96560.02;646138;216;32082;-75
2022/07/08 08:03:03;;;;;;;1.73;1.10;;;15.60;1.40;;;17.50;100.00;96558.28;646917;216;32398;-76
2022/07/08 08:05:45;;;;;;;3.97;0.90;;;15.70;1.40;;;17.66;100.00;96551.36;647328;212;31538;-75
2022/07/08 08:08:31;;;;;;;1.60;0.80;;;15.70;1.40;;;17.63;100.00;96555.84;618351;226;32527;-75
2022/07/08 08:11:08;;;;;;;2.20;0.93;;;15.50;1.40;;;17.75;100.00;96559.73;646325;212;31554;-75
2022/07/08 08:15:47;;;;;;;1.45;0.75;;;15.80;1.40;;;18.50;100.00;96559.70;647318;212;31537;-75
2022/07/08 08:18:29;;;;;;;3.70;1.10;;;15.90;1.40;;;18.35;100.00;96561.61;645509;216;31493;-75
2022/07/08 08:21:11;;;;;;;1.92;0.90;;;16.10;1.40;;;18.16;100.00;96566.73;647874;216;31546;-75
2022/07/08 08:23:52;;;;;;;0.70;0.62;;;16.30;1.40;;;17.84;100.00;96566.02;646395;212;31509;-75
2022/07/08 08:26:34;;;;;;;1.73;1.05;;;16.40;1.40;;;18.38;100.00;96572.64;646645;216;32170;-75
2022/07/08 08:29:16;;;;;;;2.50;0.90;;;16.30;1.40;;;18.83;100.00;96573.27;644494;212;31741;-75
2022/07/08 08:31:58;;;;;;;1.73;0.90;;;16.20;1.40;;;18.74;100.00;96577.97;646856;212;31534;-76
2022/07/08 08:35:50;;;;;;;1.25;0.80;;;16.30;1.40;;;18.91;100.00;96580.91;647364;212;32112;-76
2022/07/08 08:38:35;;;;;;;0.80;0.80;;;16.40;1.40;;;18.53;100.00;96574.41;646818;216;31568;-76
2022/07/08 08:41:18;;;;;;;1.23;0.82;;;16.10;1.40;;;18.11;100.00;96575.85;646015;212;31473;-75
2022/07/08 08:44:06;;;;;;;1.30;0.70;;;15.90;1.40;;;18.10;100.00;96578.63;647020;216;31479;-77
2022/07/08 08:46:48;;;;;;;1.40;0.90;;;16.00;1.40;;;18.07;100.00;96579.27;647095;212;31500;-77
2022/07/08 08:49:31;;;;;;;1.70;0.80;;;16.10;1.40;;;18.03;100.00;96577.18;646843;216;31502;-76
2022/07/08 08:52:17;;;;;;;2.37;0.80;;;16.00;1.40;;;17.45;100.00;96578.63;616885;226;32620;-76
2022/07/08 08:55:06;;;;;;;2.30;1.10;;;15.70;1.40;;;17.60;100.00;96577.11;646553;216;31640;-77
2022/07/08 08:57:57;;;;;;;1.23;0.62;;;16.10;1.40;;;16.61;100.00;96583.23;641305;216;42297;-75
2022/07/08 09:00:38;;;;;;;3.60;1.10;;;15.40;1.40;;;17.15;100.00;96585.04;645327;212;31735;-76
2022/07/08 09:03:19;;;;;;;2.37;1.20;;;15.90;1.40;;;17.40;100.00;96585.33;620288;225;31902;-75
2022/07/08 09:06:01;;;;;;;2.15;1.10;;;16.10;1.40;;;18.02;100.00;96582.47;646922;216;31545;-76
2022/07/08 09:08:45;;;;;;;3.12;1.17;;;16.50;1.40;;;18.30;100.00;96590.48;646533;216;31548;-76
2022/07/08 09:11:28;;;;;;;1.65;1.08;;;16.60;1.40;;;18.38;99.82;96586.84;619141;226;31928;-76
2022/07/08 09:14:16;;;;;;;1.77;1.23;;;16.70;1.40;;;18.54;98.42;96584.09;645605;216;31569;-76
2022/07/08 09:17:11;;;;;;;2.20;1.10;;;16.90;1.40;;;18.16;99.61;96585.27;646332;216;31633;-76
2022/07/08 09:19:55;;;;;;;3.30;0.93;;;16.60;1.40;;;18.05;98.87;96579.14;646438;216;31505;-76
2022/07/08 09:22:43;;;;;;;1.10;0.80;;;16.40;1.40;;;17.85;99.49;96582.16;647463;216;31513;-77
2022/07/08 09:25:32;;;;;;;2.30;0.90;;;16.50;1.40;;;18.28;96.92;96587.01;645861;216;31866;-76
2022/07/08 09:28:33;;;;;;;2.60;1.00;;;16.80;1.40;;;18.45;95.10;96584.13;646232;216;31512;-76
2022/07/08 09:38:35;;;;;;;1.10;0.70;;;17.10;1.40;;;18.84;91.22;96582.84;647166;216;31500;-76
2022/07/08 09:41:20;;;;;;;2.47;0.82;;;17.30;1.40;;;19.23;89.02;96581.75;620490;226;32420;-77
2022/07/08 09:44:03;;;;;;;2.90;0.80;;;17.60;1.40;;;18.64;92.30;96582.00;645466;216;42196;-76
2022/07/08 09:46:45;;;;;;;2.97;0.52;;;17.00;1.40;;;18.41;95.48;96583.84;644804;216;31535;-76
2022/07/08 09:49:30;;;;;;;0.75;0.60;;;17.10;1.40;;;19.18;93.55;96589.47;646410;212;42110;-77
2022/07/08 09:52:20;;;;;;;0.70;0.70;;;17.50;1.40;;;19.32;90.00;96588.42;644943;216;34759;-76
2022/07/08 09:55:02;;;;;;;2.40;0.80;;;17.80;1.40;;;20.16;88.59;96584.52;619774;226;31868;-76
2022/07/08 09:57:44;;;;;;;2.30;0.80;;;17.70;1.40;;;19.99;86.75;96585.75;619126;222;32027;-75
2022/07/08 10:00:28;;;;;;;1.60;0.90;;;17.90;1.40;;;19.41;85.01;96588.88;645728;216;31512;-76
2022/07/08 10:03:11;;;;;;;2.23;0.80;;;18.10;1.40;;;20.88;85.30;96584.70;646247;216;31570;-76
2022/07/08 10:05:58;;;;;;;1.67;1.08;;;19.40;1.40;;;22.47;77.42;96580.88;647648;216;32074;-78
2022/07/08 10:08:46;;;;;;;2.50;1.17;;;19.90;1.40;;;22.11;77.33;96580.17;646958;216;31615;-76
2022/07/08 10:11:34;;;;;;;1.90;0.85;;;19.90;1.40;;;21.45;75.52;96584.48;646731;216;31580;-77
2022/07/08 10:14:17;;;;;;;3.30;1.00;;;19.40;1.40;;;21.16;77.02;96588.67;645760;216;31499;-75
2022/07/08 10:16:59;;;;;;;1.62;0.90;;;19.10;1.40;;;21.44;75.15;96583.40;646759;216;31527;-75
2022/07/08 10:19:44;;;;;;;1.98;0.82;;;19.80;1.40;;;22.62;71.35;96576.27;646197;216;31646;-75
2022/07/08 10:22:25;;;;;;;1.00;0.90;;;20.30;1.40;;;21.20;74.26;96580.00;646784;216;31472;-76
2022/07/08 10:25:08;;;;;;;1.67;0.88;;;19.70;1.40;;;22.16;70.33;96577.12;646808;212;31725;-76
2022/07/08 10:27:49;;;;;;;3.20;1.12;;;20.80;1.40;;;21.73;69.83;96578.91;647359;216;31827;-76
2022/07/08 10:30:46;;;;;;;2.17;1.20;;;21.40;1.40;;;22.98;67.08;96572.95;647338;216;31687;-78
2022/07/08 10:36:06;;;;;;;5.20;0.80;;;22.20;1.40;;;23.18;65.71;96572.50;645774;216;34662;-76
2022/07/08 10:38:47;;;;;;;2.10;1.10;;;21.80;1.40;;;23.60;65.04;96574.91;647628;216;31581;-75
2022/07/08 10:41:32;;;;;;;1.00;0.90;;;21.70;1.40;;;22.85;64.14;96576.38;646511;216;31657;-76
2022/07/08 10:44:13;;;;;;;1.45;0.90;;;20.60;1.40;;;23.76;63.84;96575.53;647344;212;32068;-76
2022/07/08 10:46:55;;;;;;;1.00;0.62;;;21.70;1.40;;;24.39;60.88;96578.48;647246;216;31812;-75
2022/07/08 10:49:50;;;;;;;2.22;1.00;;;22.30;1.40;;;24.27;62.81;96573.61;645150;212;31474;-76
2022/07/08 10:52:33;;;;;;;2.17;0.90;;;22.30;1.40;;;23.53;60.07;96574.09;647278;212;31643;-76
2022/07/08 10:55:20;;;;;;;2.58;0.75;;;22.20;1.40;;;24.09;59.71;96572.61;641219;216;31640;-76
2022/07/08 10:58:01;;;;;;;3.80;1.58;;;22.80;1.40;;;23.66;56.56;96569.02;647289;216;31522;-76
2022/07/08 11:00:46;;;;;;;1.67;0.90;;;21.80;1.40;;;24.85;58.43;96572.20;646546;212;42117;-76
2022/07/08 11:03:40;;;;;;;1.65;1.25;;;21.70;1.40;;;25.31;57.33;96563.13;647086;216;32431;-76
2022/07/08 11:06:33;;;;;;;1.77;0.77;;;22.80;1.40;;;24.74;55.83;96565.31;645052;215;42940;-76
2022/07/08 11:09:17;;;;;;;1.12;0.77;;;20.80;1.40;;;22.12;63.38;96572.27;645002;216;42123;-74
2022/07/08 11:12:05;;;;;;;3.10;1.30;;;20.50;1.40;;;25.56;60.65;96561.86;648281;216;31561;-78
2022/07/08 11:14:54;;;;;;;1.40;0.60;;;23.90;1.40;;;27.02;58.74;96556.73;646903;216;42118;-76
2022/07/08 11:17:35;;;;;;;1.27;0.80;;;23.60;1.40;;;25.39;54.49;96557.55;646684;216;31499;-76
2022/07/08 11:20:18;;;;;;;1.60;1.10;;;22.30;1.40;;;25.83;54.42;96551.06;644987;216;31536;-75
2022/07/08 11:23:05;;;;;;;2.40;0.80;;;23.50;1.40;;;26.28;50.44;96547.69;621179;222;31992;-78
2022/07/08 11:25:48;;;;;;;1.90;0.70;;;21.70;1.40;;;25.84;54.64;96546.76;646168;216;31765;-76
2022/07/08 11:28:30;;;;;;;1.23;0.60;;;21.50;1.40;;;25.54;55.41;96553.45;647428;216;31553;-77
2022/07/08 11:31:25;;;;;;;2.90;1.25;;;21.00;1.40;;;23.22;56.90;96567.31;646182;216;31554;-75
2022/07/08 11:35:52;;;;;;;1.48;0.70;;;19.60;1.40;;;23.42;59.07;96566.05;645872;216;36060;-75
2022/07/08 11:38:37;;;;;;;1.37;0.67;;;20.20;1.40;;;21.50;62.80;96572.02;647933;216;31611;-75
2022/07/08 11:41:20;;;;;;;1.40;0.70;;;19.10;1.40;;;21.68;62.92;96573.88;646652;212;31509;-75
2022/07/08 11:44:00;;;;;;;1.02;0.82;;;20.00;1.40;;;23.42;58.23;96573.66;647931;216;31499;-75
2022/07/08 11:46:44;;;;;;;0.60;0.50;;;21.10;1.40;;;24.79;56.23;96563.00;647983;216;31588;-76
2022/07/08 11:49:26;;;;;;;1.15;0.75;;;21.80;1.40;;;26.42;53.57;96556.87;646674;212;31817;-76
2022/07/08 11:52:11;;;;;;;1.52;0.90;;;24.30;1.40;;;26.15;52.12;96559.36;645307;216;31516;-75
2022/07/08 11:54:53;;;;;;;2.35;0.70;;;21.60;1.40;;;25.21;53.57;96560.09;618928;222;31915;-75
2022/07/08 11:57:42;;;;;;;4.57;0.95;;;23.30;1.40;;;28.40;47.67;96556.34;647744;216;31476;-76
2022/07/08 12:00:22;;;;;;;1.60;0.90;;;24.40;1.40;;;29.85;48.42;96552.23;619656;225;31818;-76
2022/07/08 12:03:07;;;;;;;1.42;0.90;;;24.60;1.40;;;25.86;48.12;96565.07;619393;222;31812;-75
2022/07/08 12:05:49;;;;;;;1.23;0.80;;;21.00;1.40;;;23.57;53.10;96572.50;645938;216;31539;-76
2022/07/08 12:08:41;;;;;;;2.50;0.70;;;19.70;1.40;;;24.05;54.19;96575.11;619498;222;31810;-76
2022/07/08 12:11:25;;;;;;;1.50;0.90;;;21.60;1.40;;;25.68;50.54;96568.00;645940;216;31780;-75
2022/07/08 12:14:04;;;;;;;1.37;0.90;;;22.60;1.40;;;26.93;49.34;96560.95;646582;216;31635;-76
2022/07/08 12:16:47;;;;;;;2.90;0.80;;;23.40;1.40;;;26.91;48.15;96557.52;647230;216;31479;-76
2022/07/08 12:19:35;;;;;;;2.08;1.00;;;22.90;1.40;;;27.71;52.61;96558.89;645812;216;31495;-76